Underhill, Vermont
Current Conditions -  °F | °C
As of 4:54 AM on Friday 19 Dec 2014 (Local Time) from KBTV Reporting Station
Light Snow Light Snow  
Wind Chill: 17°   Ceiling: 1700
Heat Index: 28°   Visibility: 9mi
Dew Point: 21°   Wind: 13mph
Humidity: 75%   Direction: 330°NNW
Pressure: 29.97"   Gusts: NA
Location:  44.53°N, 72.95°W
Report Text: KBTV 190954Z 33011KT 9SM -SN BKN017 BKN022 OVC033 M02/M06 A2997 RMK AO2 SLP153 P0000 T10221061
Loading
Personal Weather Stations






























Interactive Weather Map New forecast layout! Learn more

10-Day Weather Forecast

Advertisements
Track Severe Weather on mobile